Aérodrome :
LOGIN :

S'inscrire | Disclaimer

   EN    FR    IT 

 










Légende :    VFR   VFR Marginal   IFR   IFR Intensif   IFR Très Intensif
Visi : 
Plafond : 
>= 8 km
>= 3000ft
5 à 8 km
1000 à 3000 ft
1500m à 5 km
500 à 1000 ft
800 à 1500m
200 à 500 ft
< 800m
< 200 ft
Symboles :   Orages  Brouillard  Fortes neiges  Fortes précipitations  Vent > 20 kt
SIGMETs :   Divers  Orages  Givrage  Turbulence  Onde Orograph.  Cendres Volcan.






- Altitude de l'aérodrome : 1910 ft
- Code IATA : RDZ


LFCR - Rodez

DERNIER METAR :
  • 032000Z AUTO 19007KT 9999 VCTS SCT024/// SCT096/// BKN110/// ///CB 17/13 Q1005 TEMPO 26015G30KT 3000 SHRA BECMG BKN040

METARs EXPIRÉS :
  • 031930Z AUTO 20008KT 9999 FEW020/// BKN049/// BKN082/// ///CB 17/13 Q1005 TEMPO 26015G30KT 3000 SHRA BECMG BKN040
  • 031900Z AUTO 19008KT 160V220 9999 SCT041/// BKN047/// BKN230/// ///CB 18/14 Q1005 TEMPO 26015G30KT 3000 SHRA
  • 031830Z AUTO 21007KT 9999 FEW023/// BKN030/// BKN036/// ///CB 18/13 Q1005 TEMPO 26015G30KT 3000 SHRA
  • 031800Z AUTO 21008KT 9999 BKN030 19/12 Q1005 TEMPO 26015G30KT 3000 SHRA SCT040CB BKN080
  • 031730Z AUTO 21009KT 9999 FEW037 20/12 Q1005 TEMPO 26015G30KT 3000 SHRA SCT040CB BKN080

TAF AMD TAF LFCR
Valide du 03 à 18h jusqu'au 04 à 18h UTC


031846Z 0318/0418 25008KT 9999 SCT040TCU
TEMPO 0318/0321 26015G30KT 3000 SHRA SCT040CB BKN080
PROB40
TEMPO 0319/0320 -TSRA
BECMG 0321/0323 BKN040
PROB40
TEMPO 0402/0405 BKN012
BECMG 0408/0410 SCT030TCU
TEMPO 0410/0418 4000 SHRA BKN030CB
PROB30
TEMPO 0411/0418 VRB20G32KT 3000 -TSRA BKN020CB



MET'MAP, la Météo Aéronautique d'un coup d'oeil ! - Copyright ORBIFLY Décembre 2007 - Disclaimer

ORBIFLY MET'MAP TEAM :

Programmation & Développement : Alexandra Zaïnal
Sur une idée originale de : Baudouin d'Aumeries
Assistance à la programmation : Marc-Olivier Méhu
Soutien technique & logistique : Manuel Goepfert

Contact : metmap@orbifly.com




SOURCES & CREDITS :

   NOAA